sensor_id;sensor_type;location;lat;lon;timestamp;temperature;humidity
59075;DHT22;44860;53.020;6.738;2023-07-28T00:00:09;18.30;99.90
59075;DHT22;44860;53.020;6.738;2023-07-28T00:02:35;18.30;99.90
59075;DHT22;44860;53.020;6.738;2023-07-28T00:05:00;18.30;99.90
59075;DHT22;44860;53.020;6.738;2023-07-28T00:07:26;18.30;99.90
59075;DHT22;44860;53.020;6.738;2023-07-28T00:09:52;18.30;99.90
59075;DHT22;44860;53.020;6.738;2023-07-28T00:12:17;18.30;99.90
59075;DHT22;44860;53.020;6.738;2023-07-28T00:14:43;18.30;99.90
59075;DHT22;44860;53.020;6.738;2023-07-28T00:17:09;18.30;99.90
59075;DHT22;44860;53.020;6.738;2023-07-28T00:19:34;18.30;99.90
59075;DHT22;44860;53.020;6.738;2023-07-28T00:22:00;18.30;99.90
59075;DHT22;44860;53.020;6.738;2023-07-28T00:24:26;18.30;99.90
59075;DHT22;44860;53.020;6.738;2023-07-28T00:26:51;18.30;99.90
59075;DHT22;44860;53.020;6.738;2023-07-28T00:29:17;18.30;99.90
59075;DHT22;44860;53.020;6.738;2023-07-28T00:31:43;18.30;99.90
59075;DHT22;44860;53.020;6.738;2023-07-28T00:34:08;18.30;99.90
59075;DHT22;44860;53.020;6.738;2023-07-28T00:36:34;18.30;99.90
59075;DHT22;44860;53.020;6.738;2023-07-28T00:38:59;18.30;99.90
59075;DHT22;44860;53.020;6.738;2023-07-28T00:41:25;18.30;99.90
59075;DHT22;44860;53.020;6.738;2023-07-28T00:43:51;18.30;99.90
59075;DHT22;44860;53.020;6.738;2023-07-28T00:46:17;18.30;99.90
59075;DHT22;44860;53.020;6.738;2023-07-28T00:48:43;18.30;99.90
59075;DHT22;44860;53.020;6.738;2023-07-28T00:51:09;18.30;99.90
59075;DHT22;44860;53.020;6.738;2023-07-28T00:53:35;18.30;99.90
59075;DHT22;44860;53.020;6.738;2023-07-28T00:56:02;18.30;99.90
59075;DHT22;44860;53.020;6.738;2023-07-28T00:58:29;18.30;99.90
59075;DHT22;44860;53.020;6.738;2023-07-28T01:00:54;18.30;99.90
59075;DHT22;44860;53.020;6.738;2023-07-28T01:03:20;18.30;99.90
59075;DHT22;44860;53.020;6.738;2023-07-28T01:08:58;18.30;99.90
59075;DHT22;44860;53.020;6.738;2023-07-28T01:11:25;18.30;99.90
59075;DHT22;44860;53.020;6.738;2023-07-28T01:13:51;18.30;99.90
59075;DHT22;44860;53.020;6.738;2023-07-28T01:16:16;18.30;99.90
59075;DHT22;44860;53.020;6.738;2023-07-28T01:18:42;18.30;99.90
59075;DHT22;44860;53.020;6.738;2023-07-28T01:21:14;18.30;99.90
59075;DHT22;44860;53.020;6.738;2023-07-28T01:23:55;18.30;99.90
59075;DHT22;44860;53.020;6.738;2023-07-28T01:26:31;18.30;99.90
59075;DHT22;44860;53.020;6.738;2023-07-28T01:28:57;18.30;99.90
59075;DHT22;44860;53.020;6.738;2023-07-28T01:31:24;18.30;99.90
59075;DHT22;44860;53.020;6.738;2023-07-28T01:33:49;18.30;99.90
59075;DHT22;44860;53.020;6.738;2023-07-28T01:36:15;18.30;99.90
59075;DHT22;44860;53.020;6.738;2023-07-28T01:38:41;18.30;99.90
59075;DHT22;44860;53.020;6.738;2023-07-28T01:41:06;18.30;99.90
59075;DHT22;44860;53.020;6.738;2023-07-28T01:43:32;18.30;99.90
59075;DHT22;44860;53.020;6.738;2023-07-28T01:45:58;18.30;99.90
59075;DHT22;44860;53.020;6.738;2023-07-28T01:48:23;18.30;99.90
59075;DHT22;44860;53.020;6.738;2023-07-28T01:50:49;18.30;99.90
59075;DHT22;44860;53.020;6.738;2023-07-28T01:53:15;18.30;99.90
59075;DHT22;44860;53.020;6.738;2023-07-28T01:55:40;18.30;99.90
59075;DHT22;44860;53.020;6.738;2023-07-28T01:58:06;18.30;99.90
59075;DHT22;44860;53.020;6.738;2023-07-28T02:00:32;18.30;99.90
59075;DHT22;44860;53.020;6.738;2023-07-28T02:02:57;18.30;99.90
59075;DHT22;44860;53.020;6.738;2023-07-28T02:05:24;18.30;99.90
59075;DHT22;44860;53.020;6.738;2023-07-28T02:07:50;18.30;99.90
59075;DHT22;44860;53.020;6.738;2023-07-28T02:10:15;18.30;99.90
59075;DHT22;44860;53.020;6.738;2023-07-28T02:12:41;18.30;99.90
59075;DHT22;44860;53.020;6.738;2023-07-28T02:15:07;18.30;99.90
59075;DHT22;44860;53.020;6.738;2023-07-28T02:17:33;18.30;99.90
59075;DHT22;44860;53.020;6.738;2023-07-28T02:19:59;18.30;99.90
59075;DHT22;44860;53.020;6.738;2023-07-28T02:22:25;18.30;99.90
59075;DHT22;44860;53.020;6.738;2023-07-28T02:24:50;18.30;99.90
59075;DHT22;44860;53.020;6.738;2023-07-28T02:27:16;18.30;99.90
59075;DHT22;44860;53.020;6.738;2023-07-28T02:29:42;18.30;99.90
59075;DHT22;44860;53.020;6.738;2023-07-28T02:32:07;18.30;99.90
59075;DHT22;44860;53.020;6.738;2023-07-28T02:34:33;18.30;99.90
59075;DHT22;44860;53.020;6.738;2023-07-28T02:36:59;18.30;99.90
59075;DHT22;44860;53.020;6.738;2023-07-28T02:39:25;18.30;99.90
59075;DHT22;44860;53.020;6.738;2023-07-28T02:41:51;18.30;99.90
59075;DHT22;44860;53.020;6.738;2023-07-28T02:44:16;18.30;99.90
59075;DHT22;44860;53.020;6.738;2023-07-28T02:46:42;18.30;99.90
59075;DHT22;44860;53.020;6.738;2023-07-28T02:49:08;18.30;99.90
59075;DHT22;44860;53.020;6.738;2023-07-28T02:51:33;18.30;99.90
59075;DHT22;44860;53.020;6.738;2023-07-28T02:54:00;18.30;99.90
59075;DHT22;44860;53.020;6.738;2023-07-28T02:56:25;18.30;99.90
59075;DHT22;44860;53.020;6.738;2023-07-28T02:58:52;18.30;99.90
59075;DHT22;44860;53.020;6.738;2023-07-28T03:01:17;18.30;99.90
59075;DHT22;44860;53.020;6.738;2023-07-28T03:03:44;18.30;99.90
59075;DHT22;44860;53.020;6.738;2023-07-28T03:06:10;18.30;99.90
59075;DHT22;44860;53.020;6.738;2023-07-28T03:08:35;18.30;99.90
59075;DHT22;44860;53.020;6.738;2023-07-28T03:11:01;18.30;99.90
59075;DHT22;44860;53.020;6.738;2023-07-28T03:13:29;18.30;99.90
59075;DHT22;44860;53.020;6.738;2023-07-28T03:15:55;18.30;99.90
59075;DHT22;44860;53.020;6.738;2023-07-28T03:18:21;18.30;99.90
59075;DHT22;44860;53.020;6.738;2023-07-28T03:20:47;18.30;99.90
59075;DHT22;44860;53.020;6.738;2023-07-28T03:23:12;18.30;99.90
59075;DHT22;44860;53.020;6.738;2023-07-28T03:25:38;18.30;99.90
59075;DHT22;44860;53.020;6.738;2023-07-28T03:28:04;18.30;99.90
59075;DHT22;44860;53.020;6.738;2023-07-28T03:30:30;18.30;99.90
59075;DHT22;44860;53.020;6.738;2023-07-28T03:32:55;18.30;99.90
59075;DHT22;44860;53.020;6.738;2023-07-28T03:35:21;18.30;99.90
59075;DHT22;44860;53.020;6.738;2023-07-28T03:37:47;18.30;99.90
59075;DHT22;44860;53.020;6.738;2023-07-28T03:40:13;18.30;99.90
59075;DHT22;44860;53.020;6.738;2023-07-28T03:42:38;18.30;99.90
59075;DHT22;44860;53.020;6.738;2023-07-28T03:45:04;18.30;99.90
59075;DHT22;44860;53.020;6.738;2023-07-28T03:47:30;18.30;99.90
59075;DHT22;44860;53.020;6.738;2023-07-28T03:49:56;18.30;99.90
59075;DHT22;44860;53.020;6.738;2023-07-28T03:52:22;18.30;99.90
59075;DHT22;44860;53.020;6.738;2023-07-28T03:54:47;18.30;99.90
59075;DHT22;44860;53.020;6.738;2023-07-28T03:57:13;18.30;99.90
59075;DHT22;44860;53.020;6.738;2023-07-28T03:59:39;18.30;99.90
59075;DHT22;44860;53.020;6.738;2023-07-28T04:02:04;18.30;99.90
59075;DHT22;44860;53.020;6.738;2023-07-28T04:04:30;18.30;99.90
59075;DHT22;44860;53.020;6.738;2023-07-28T04:06:56;18.30;99.90
59075;DHT22;44860;53.020;6.738;2023-07-28T04:09:21;18.30;99.90
59075;DHT22;44860;53.020;6.738;2023-07-28T04:11:47;18.30;99.90
59075;DHT22;44860;53.020;6.738;2023-07-28T04:14:13;18.30;99.90
59075;DHT22;44860;53.020;6.738;2023-07-28T04:16:40;18.30;99.90
59075;DHT22;44860;53.020;6.738;2023-07-28T04:19:06;18.30;99.90
59075;DHT22;44860;53.020;6.738;2023-07-28T04:21:31;18.30;99.90
59075;DHT22;44860;53.020;6.738;2023-07-28T04:23:57;18.30;99.90
59075;DHT22;44860;53.020;6.738;2023-07-28T04:26:24;18.20;99.90
59075;DHT22;44860;53.020;6.738;2023-07-28T04:28:50;18.30;99.90
59075;DHT22;44860;53.020;6.738;2023-07-28T04:31:15;18.30;99.90
59075;DHT22;44860;53.020;6.738;2023-07-28T04:33:42;18.30;99.90
59075;DHT22;44860;53.020;6.738;2023-07-28T04:36:08;18.20;99.90
59075;DHT22;44860;53.020;6.738;2023-07-28T04:38:33;18.20;99.90
59075;DHT22;44860;53.020;6.738;2023-07-28T04:40:59;18.30;99.90
59075;DHT22;44860;53.020;6.738;2023-07-28T04:43:25;18.30;99.90
59075;DHT22;44860;53.020;6.738;2023-07-28T04:45:50;18.30;99.90
59075;DHT22;44860;53.020;6.738;2023-07-28T04:48:16;18.30;99.90
59075;DHT22;44860;53.020;6.738;2023-07-28T04:50:42;18.30;99.90
59075;DHT22;44860;53.020;6.738;2023-07-28T04:53:07;18.30;99.90
59075;DHT22;44860;53.020;6.738;2023-07-28T04:55:33;18.30;99.90
59075;DHT22;44860;53.020;6.738;2023-07-28T04:57:59;18.30;99.90
59075;DHT22;44860;53.020;6.738;2023-07-28T05:00:24;18.30;99.90
59075;DHT22;44860;53.020;6.738;2023-07-28T05:02:50;18.30;99.90
59075;DHT22;44860;53.020;6.738;2023-07-28T05:05:16;18.30;99.90
59075;DHT22;44860;53.020;6.738;2023-07-28T05:07:42;18.30;99.90
59075;DHT22;44860;53.020;6.738;2023-07-28T05:10:08;18.30;99.90
59075;DHT22;44860;53.020;6.738;2023-07-28T05:12:33;18.30;99.90
59075;DHT22;44860;53.020;6.738;2023-07-28T05:14:59;18.30;99.90
59075;DHT22;44860;53.020;6.738;2023-07-28T05:17:25;18.30;99.90
59075;DHT22;44860;53.020;6.738;2023-07-28T05:19:51;18.30;99.90
59075;DHT22;44860;53.020;6.738;2023-07-28T05:22:17;18.40;99.90
59075;DHT22;44860;53.020;6.738;2023-07-28T05:24:43;18.30;99.90
59075;DHT22;44860;53.020;6.738;2023-07-28T05:27:10;18.40;99.90
59075;DHT22;44860;53.020;6.738;2023-07-28T05:29:36;18.30;99.90
59075;DHT22;44860;53.020;6.738;2023-07-28T05:32:02;18.40;99.90
59075;DHT22;44860;53.020;6.738;2023-07-28T05:34:29;18.40;99.90
59075;DHT22;44860;53.020;6.738;2023-07-28T05:36:55;18.40;99.90
59075;DHT22;44860;53.020;6.738;2023-07-28T05:39:21;18.40;99.90
59075;DHT22;44860;53.020;6.738;2023-07-28T05:41:47;18.40;99.90
59075;DHT22;44860;53.020;6.738;2023-07-28T05:44:13;18.40;99.90
59075;DHT22;44860;53.020;6.738;2023-07-28T05:46:38;18.40;99.90
59075;DHT22;44860;53.020;6.738;2023-07-28T05:49:04;18.50;99.90
59075;DHT22;44860;53.020;6.738;2023-07-28T05:51:30;18.50;99.90
59075;DHT22;44860;53.020;6.738;2023-07-28T05:53:56;18.50;99.90
59075;DHT22;44860;53.020;6.738;2023-07-28T05:56:22;18.50;99.90
59075;DHT22;44860;53.020;6.738;2023-07-28T05:58:48;18.50;99.90
59075;DHT22;44860;53.020;6.738;2023-07-28T06:01:14;18.50;99.90
59075;DHT22;44860;53.020;6.738;2023-07-28T06:03:40;18.50;99.90
59075;DHT22;44860;53.020;6.738;2023-07-28T06:06:05;18.60;99.90
59075;DHT22;44860;53.020;6.738;2023-07-28T06:08:31;18.50;99.90
59075;DHT22;44860;53.020;6.738;2023-07-28T06:10:57;18.50;99.90
59075;DHT22;44860;53.020;6.738;2023-07-28T06:13:23;18.50;99.90
59075;DHT22;44860;53.020;6.738;2023-07-28T06:15:48;18.60;99.90
59075;DHT22;44860;53.020;6.738;2023-07-28T06:18:14;18.60;99.90
59075;DHT22;44860;53.020;6.738;2023-07-28T06:20:43;18.60;99.90
59075;DHT22;44860;53.020;6.738;2023-07-28T06:23:09;18.60;99.90
59075;DHT22;44860;53.020;6.738;2023-07-28T06:25:35;18.70;99.90
59075;DHT22;44860;53.020;6.738;2023-07-28T06:28:01;18.70;99.90
59075;DHT22;44860;53.020;6.738;2023-07-28T06:30:28;18.70;99.90
59075;DHT22;44860;53.020;6.738;2023-07-28T06:32:54;18.70;99.90
59075;DHT22;44860;53.020;6.738;2023-07-28T06:35:19;18.70;99.90
59075;DHT22;44860;53.020;6.738;2023-07-28T06:37:45;18.80;99.90
59075;DHT22;44860;53.020;6.738;2023-07-28T06:40:11;18.80;99.90
59075;DHT22;44860;53.020;6.738;2023-07-28T06:42:36;18.80;99.90
59075;DHT22;44860;53.020;6.738;2023-07-28T06:45:03;18.80;99.90
59075;DHT22;44860;53.020;6.738;2023-07-28T06:47:29;18.80;99.90
59075;DHT22;44860;53.020;6.738;2023-07-28T06:49:55;18.80;99.90
59075;DHT22;44860;53.020;6.738;2023-07-28T06:52:21;18.90;99.90
59075;DHT22;44860;53.020;6.738;2023-07-28T06:54:47;18.90;99.90
59075;DHT22;44860;53.020;6.738;2023-07-28T06:57:14;18.90;99.90
59075;DHT22;44860;53.020;6.738;2023-07-28T06:59:41;18.90;99.90
59075;DHT22;44860;53.020;6.738;2023-07-28T07:02:07;18.90;99.90
59075;DHT22;44860;53.020;6.738;2023-07-28T07:04:32;18.90;99.90
59075;DHT22;44860;53.020;6.738;2023-07-28T07:06:58;19.00;99.90
59075;DHT22;44860;53.020;6.738;2023-07-28T07:09:24;19.00;99.90
59075;DHT22;44860;53.020;6.738;2023-07-28T07:11:50;19.00;99.90
59075;DHT22;44860;53.020;6.738;2023-07-28T07:14:16;19.00;99.90
59075;DHT22;44860;53.020;6.738;2023-07-28T07:16:41;19.00;99.90
59075;DHT22;44860;53.020;6.738;2023-07-28T07:19:07;19.10;99.90
59075;DHT22;44860;53.020;6.738;2023-07-28T07:21:34;19.10;99.90
59075;DHT22;44860;53.020;6.738;2023-07-28T07:24:00;19.10;99.90
59075;DHT22;44860;53.020;6.738;2023-07-28T07:26:27;19.10;99.90
59075;DHT22;44860;53.020;6.738;2023-07-28T07:28:53;19.10;99.90
59075;DHT22;44860;53.020;6.738;2023-07-28T07:31:18;19.10;99.90
59075;DHT22;44860;53.020;6.738;2023-07-28T07:33:44;19.20;99.90
59075;DHT22;44860;53.020;6.738;2023-07-28T07:36:17;19.20;99.90
59075;DHT22;44860;53.020;6.738;2023-07-28T07:38:43;19.20;99.90
59075;DHT22;44860;53.020;6.738;2023-07-28T07:41:13;19.30;99.90
59075;DHT22;44860;53.020;6.738;2023-07-28T07:43:45;19.20;99.90
59075;DHT22;44860;53.020;6.738;2023-07-28T07:46:10;19.30;99.90
59075;DHT22;44860;53.020;6.738;2023-07-28T07:48:36;19.30;99.90
59075;DHT22;44860;53.020;6.738;2023-07-28T07:51:02;19.30;99.90
59075;DHT22;44860;53.020;6.738;2023-07-28T07:53:27;19.30;99.90
59075;DHT22;44860;53.020;6.738;2023-07-28T07:55:53;19.30;99.90
59075;DHT22;44860;53.020;6.738;2023-07-28T07:58:19;19.30;99.90
59075;DHT22;44860;53.020;6.738;2023-07-28T08:00:44;19.40;99.90
59075;DHT22;44860;53.020;6.738;2023-07-28T08:03:11;19.50;99.90
59075;DHT22;44860;53.020;6.738;2023-07-28T08:05:36;19.60;99.90
59075;DHT22;44860;53.020;6.738;2023-07-28T08:08:03;19.70;99.90
59075;DHT22;44860;53.020;6.738;2023-07-28T08:10:28;19.70;99.90
59075;DHT22;44860;53.020;6.738;2023-07-28T08:12:55;19.70;99.90
59075;DHT22;44860;53.020;6.738;2023-07-28T08:15:21;19.80;99.90
59075;DHT22;44860;53.020;6.738;2023-07-28T08:17:46;19.90;99.90
59075;DHT22;44860;53.020;6.738;2023-07-28T08:20:12;19.90;99.90
59075;DHT22;44860;53.020;6.738;2023-07-28T08:22:38;20.00;99.90
59075;DHT22;44860;53.020;6.738;2023-07-28T08:25:05;20.00;99.90
59075;DHT22;44860;53.020;6.738;2023-07-28T08:27:31;20.10;99.90
59075;DHT22;44860;53.020;6.738;2023-07-28T08:29:56;20.20;99.90
59075;DHT22;44860;53.020;6.738;2023-07-28T08:32:22;20.20;99.90
59075;DHT22;44860;53.020;6.738;2023-07-28T08:34:48;20.30;99.90
59075;DHT22;44860;53.020;6.738;2023-07-28T08:37:14;20.30;99.90
59075;DHT22;44860;53.020;6.738;2023-07-28T08:39:39;20.40;99.90
59075;DHT22;44860;53.020;6.738;2023-07-28T08:42:05;20.50;99.90
59075;DHT22;44860;53.020;6.738;2023-07-28T08:44:32;20.50;99.90
59075;DHT22;44860;53.020;6.738;2023-07-28T08:47:02;20.60;99.90
59075;DHT22;44860;53.020;6.738;2023-07-28T08:49:33;20.70;99.90
59075;DHT22;44860;53.020;6.738;2023-07-28T08:52:03;20.80;99.90
59075;DHT22;44860;53.020;6.738;2023-07-28T08:54:29;20.80;99.90
59075;DHT22;44860;53.020;6.738;2023-07-28T08:56:57;20.90;99.90
59075;DHT22;44860;53.020;6.738;2023-07-28T08:59:24;20.90;99.90
59075;DHT22;44860;53.020;6.738;2023-07-28T09:01:55;21.00;99.90
59075;DHT22;44860;53.020;6.738;2023-07-28T09:04:22;21.10;99.90
59075;DHT22;44860;53.020;6.738;2023-07-28T09:06:48;21.20;99.90
59075;DHT22;44860;53.020;6.738;2023-07-28T09:09:15;21.30;99.90
59075;DHT22;44860;53.020;6.738;2023-07-28T09:11:49;21.40;99.90
59075;DHT22;44860;53.020;6.738;2023-07-28T09:14:17;21.40;99.90
59075;DHT22;44860;53.020;6.738;2023-07-28T09:16:43;21.50;99.90
59075;DHT22;44860;53.020;6.738;2023-07-28T09:19:10;21.60;99.90
59075;DHT22;44860;53.020;6.738;2023-07-28T09:21:38;21.50;99.90
59075;DHT22;44860;53.020;6.738;2023-07-28T09:24:05;21.60;99.90
59075;DHT22;44860;53.020;6.738;2023-07-28T09:29:17;21.60;99.90
59075;DHT22;44860;53.020;6.738;2023-07-28T09:31:47;21.60;99.90
59075;DHT22;44860;53.020;6.738;2023-07-28T09:34:24;21.70;99.90
59075;DHT22;44860;53.020;6.738;2023-07-28T09:36:50;21.70;99.90
59075;DHT22;44860;53.020;6.738;2023-07-28T09:39:15;21.70;99.90
59075;DHT22;44860;53.020;6.738;2023-07-28T09:41:44;21.70;99.90
59075;DHT22;44860;53.020;6.738;2023-07-28T09:44:10;21.80;99.90
59075;DHT22;44860;53.020;6.738;2023-07-28T09:49:14;21.90;99.90
59075;DHT22;44860;53.020;6.738;2023-07-28T09:51:43;21.90;99.90
59075;DHT22;44860;53.020;6.738;2023-07-28T09:54:14;21.90;99.90
59075;DHT22;44860;53.020;6.738;2023-07-28T09:56:41;21.90;99.90
59075;DHT22;44860;53.020;6.738;2023-07-28T09:59:16;21.90;99.90
59075;DHT22;44860;53.020;6.738;2023-07-28T10:01:44;21.90;99.90
59075;DHT22;44860;53.020;6.738;2023-07-28T10:04:10;22.00;99.90
59075;DHT22;44860;53.020;6.738;2023-07-28T10:06:36;22.00;99.90
59075;DHT22;44860;53.020;6.738;2023-07-28T10:09:04;22.00;99.90
59075;DHT22;44860;53.020;6.738;2023-07-28T10:11:31;22.00;99.90
59075;DHT22;44860;53.020;6.738;2023-07-28T10:13:57;22.10;99.90
59075;DHT22;44860;53.020;6.738;2023-07-28T10:16:30;22.10;99.90
59075;DHT22;44860;53.020;6.738;2023-07-28T10:18:58;22.10;99.90
59075;DHT22;44860;53.020;6.738;2023-07-28T10:21:27;22.10;99.90
59075;DHT22;44860;53.020;6.738;2023-07-28T10:23:57;22.20;99.90
59075;DHT22;44860;53.020;6.738;2023-07-28T10:26:37;22.20;99.90
59075;DHT22;44860;53.020;6.738;2023-07-28T10:29:14;22.20;99.90
59075;DHT22;44860;53.020;6.738;2023-07-28T10:31:54;22.20;99.90
59075;DHT22;44860;53.020;6.738;2023-07-28T10:34:21;22.20;99.90
59075;DHT22;44860;53.020;6.738;2023-07-28T10:36:58;22.30;99.90
59075;DHT22;44860;53.020;6.738;2023-07-28T10:39:24;22.50;99.90
59075;DHT22;44860;53.020;6.738;2023-07-28T10:42:07;22.50;99.90
59075;DHT22;44860;53.020;6.738;2023-07-28T10:44:34;22.70;99.90
59075;DHT22;44860;53.020;6.738;2023-07-28T10:47:00;22.70;99.90
59075;DHT22;44860;53.020;6.738;2023-07-28T10:49:27;22.70;99.90
59075;DHT22;44860;53.020;6.738;2023-07-28T10:51:53;22.90;99.90
59075;DHT22;44860;53.020;6.738;2023-07-28T10:54:19;22.90;99.90
59075;DHT22;44860;53.020;6.738;2023-07-28T10:56:49;22.90;99.90
59075;DHT22;44860;53.020;6.738;2023-07-28T10:59:15;22.90;99.90
59075;DHT22;44860;53.020;6.738;2023-07-28T11:01:41;22.90;99.90
59075;DHT22;44860;53.020;6.738;2023-07-28T11:04:17;22.90;99.90
59075;DHT22;44860;53.020;6.738;2023-07-28T11:06:47;23.00;99.90
59075;DHT22;44860;53.020;6.738;2023-07-28T11:09:17;23.10;99.90
59075;DHT22;44860;53.020;6.738;2023-07-28T11:11:44;23.30;99.90
59075;DHT22;44860;53.020;6.738;2023-07-28T11:14:11;23.40;99.90
59075;DHT22;44860;53.020;6.738;2023-07-28T11:16:38;23.50;99.90
59075;DHT22;44860;53.020;6.738;2023-07-28T11:19:08;23.60;99.90
59075;DHT22;44860;53.020;6.738;2023-07-28T11:21:41;23.60;99.90
59075;DHT22;44860;53.020;6.738;2023-07-28T11:24:08;23.70;99.90
59075;DHT22;44860;53.020;6.738;2023-07-28T11:26:36;23.80;99.90
59075;DHT22;44860;53.020;6.738;2023-07-28T11:29:02;23.80;99.90
59075;DHT22;44860;53.020;6.738;2023-07-28T11:31:29;23.80;99.90
59075;DHT22;44860;53.020;6.738;2023-07-28T11:33:55;23.90;99.90
59075;DHT22;44860;53.020;6.738;2023-07-28T11:36:27;23.90;99.90
59075;DHT22;44860;53.020;6.738;2023-07-28T11:38:55;23.90;99.90
59075;DHT22;44860;53.020;6.738;2023-07-28T11:41:21;23.90;99.90
59075;DHT22;44860;53.020;6.738;2023-07-28T11:43:51;23.90;99.90
59075;DHT22;44860;53.020;6.738;2023-07-28T11:46:36;23.90;99.90
59075;DHT22;44860;53.020;6.738;2023-07-28T11:49:11;24.10;99.90
59075;DHT22;44860;53.020;6.738;2023-07-28T11:51:39;24.10;99.90
59075;DHT22;44860;53.020;6.738;2023-07-28T11:55:29;24.10;99.90
59075;DHT22;44860;53.020;6.738;2023-07-28T11:57:55;24.00;99.90
59075;DHT22;44860;53.020;6.738;2023-07-28T12:00:31;23.90;99.90
59075;DHT22;44860;53.020;6.738;2023-07-28T12:03:05;23.90;99.90
59075;DHT22;44860;53.020;6.738;2023-07-28T12:05:32;23.90;99.90
59075;DHT22;44860;53.020;6.738;2023-07-28T12:07:58;23.80;99.90
59075;DHT22;44860;53.020;6.738;2023-07-28T12:10:25;23.90;99.90
59075;DHT22;44860;53.020;6.738;2023-07-28T12:12:50;23.80;99.90
59075;DHT22;44860;53.020;6.738;2023-07-28T12:15:29;23.80;99.90
59075;DHT22;44860;53.020;6.738;2023-07-28T12:20:27;23.60;99.90
59075;DHT22;44860;53.020;6.738;2023-07-28T12:22:58;23.60;99.90
59075;DHT22;44860;53.020;6.738;2023-07-28T12:25:23;23.70;99.90
59075;DHT22;44860;53.020;6.738;2023-07-28T12:27:49;23.70;99.90
59075;DHT22;44860;53.020;6.738;2023-07-28T12:30:15;23.70;99.90
59075;DHT22;44860;53.020;6.738;2023-07-28T12:32:40;23.70;99.90
59075;DHT22;44860;53.020;6.738;2023-07-28T12:35:06;23.60;99.90
59075;DHT22;44860;53.020;6.738;2023-07-28T12:37:32;23.60;99.90
59075;DHT22;44860;53.020;6.738;2023-07-28T12:39:58;23.50;99.90
59075;DHT22;44860;53.020;6.738;2023-07-28T12:42:24;23.50;99.90
59075;DHT22;44860;53.020;6.738;2023-07-28T12:44:50;23.40;99.90
59075;DHT22;44860;53.020;6.738;2023-07-28T12:47:16;23.40;99.90
59075;DHT22;44860;53.020;6.738;2023-07-28T12:49:41;23.50;99.90
59075;DHT22;44860;53.020;6.738;2023-07-28T12:52:07;23.50;99.90
59075;DHT22;44860;53.020;6.738;2023-07-28T12:54:33;23.50;99.90
59075;DHT22;44860;53.020;6.738;2023-07-28T12:56:59;23.50;99.90
59075;DHT22;44860;53.020;6.738;2023-07-28T12:59:26;23.60;99.90
59075;DHT22;44860;53.020;6.738;2023-07-28T13:01:52;23.60;99.90
59075;DHT22;44860;53.020;6.738;2023-07-28T13:04:18;23.60;99.90
59075;DHT22;44860;53.020;6.738;2023-07-28T13:06:44;23.60;99.90
59075;DHT22;44860;53.020;6.738;2023-07-28T13:09:10;23.60;99.90
59075;DHT22;44860;53.020;6.738;2023-07-28T13:11:35;23.60;99.90
59075;DHT22;44860;53.020;6.738;2023-07-28T13:14:02;23.50;99.90
59075;DHT22;44860;53.020;6.738;2023-07-28T13:16:27;23.50;99.90
59075;DHT22;44860;53.020;6.738;2023-07-28T13:18:53;23.50;99.90
59075;DHT22;44860;53.020;6.738;2023-07-28T13:21:19;23.40;99.90
59075;DHT22;44860;53.020;6.738;2023-07-28T13:23:44;23.40;99.90
59075;DHT22;44860;53.020;6.738;2023-07-28T13:26:10;23.40;99.90
59075;DHT22;44860;53.020;6.738;2023-07-28T13:28:36;23.40;99.90
59075;DHT22;44860;53.020;6.738;2023-07-28T13:31:02;23.30;99.90
59075;DHT22;44860;53.020;6.738;2023-07-28T13:33:30;23.30;99.90
59075;DHT22;44860;53.020;6.738;2023-07-28T13:35:56;23.20;99.90
59075;DHT22;44860;53.020;6.738;2023-07-28T13:38:21;23.10;99.90
59075;DHT22;44860;53.020;6.738;2023-07-28T13:40:48;23.10;99.90
59075;DHT22;44860;53.020;6.738;2023-07-28T13:43:14;23.20;99.90
59075;DHT22;44860;53.020;6.738;2023-07-28T13:45:40;23.20;99.90
59075;DHT22;44860;53.020;6.738;2023-07-28T13:48:06;23.20;99.90
59075;DHT22;44860;53.020;6.738;2023-07-28T13:50:32;23.10;99.90
59075;DHT22;44860;53.020;6.738;2023-07-28T13:52:57;23.10;99.90
59075;DHT22;44860;53.020;6.738;2023-07-28T13:55:23;23.10;99.90
59075;DHT22;44860;53.020;6.738;2023-07-28T13:57:50;23.10;99.90
59075;DHT22;44860;53.020;6.738;2023-07-28T14:00:16;23.10;99.90
59075;DHT22;44860;53.020;6.738;2023-07-28T14:02:42;23.10;99.90
59075;DHT22;44860;53.020;6.738;2023-07-28T14:05:11;23.10;99.90
59075;DHT22;44860;53.020;6.738;2023-07-28T14:07:37;23.10;99.90
59075;DHT22;44860;53.020;6.738;2023-07-28T14:10:03;23.20;99.90
59075;DHT22;44860;53.020;6.738;2023-07-28T14:12:29;23.20;99.90
59075;DHT22;44860;53.020;6.738;2023-07-28T14:14:55;23.20;99.90
59075;DHT22;44860;53.020;6.738;2023-07-28T14:17:21;23.20;99.90
59075;DHT22;44860;53.020;6.738;2023-07-28T14:19:47;23.20;99.90
59075;DHT22;44860;53.020;6.738;2023-07-28T14:22:13;23.20;99.90
59075;DHT22;44860;53.020;6.738;2023-07-28T14:24:39;23.30;99.90
59075;DHT22;44860;53.020;6.738;2023-07-28T14:27:05;23.20;99.90
59075;DHT22;44860;53.020;6.738;2023-07-28T14:29:31;23.20;99.90
59075;DHT22;44860;53.020;6.738;2023-07-28T14:31:57;23.30;99.90
59075;DHT22;44860;53.020;6.738;2023-07-28T14:34:22;23.40;99.90
59075;DHT22;44860;53.020;6.738;2023-07-28T14:36:48;23.40;99.90
59075;DHT22;44860;53.020;6.738;2023-07-28T14:39:14;23.40;99.90
59075;DHT22;44860;53.020;6.738;2023-07-28T14:41:39;23.40;99.90
59075;DHT22;44860;53.020;6.738;2023-07-28T14:44:05;23.50;99.90
59075;DHT22;44860;53.020;6.738;2023-07-28T14:46:30;23.50;99.90
59075;DHT22;44860;53.020;6.738;2023-07-28T14:48:56;23.60;99.90
59075;DHT22;44860;53.020;6.738;2023-07-28T14:51:22;23.80;99.90
59075;DHT22;44860;53.020;6.738;2023-07-28T14:53:48;23.80;99.90
59075;DHT22;44860;53.020;6.738;2023-07-28T14:56:15;23.80;99.90
59075;DHT22;44860;53.020;6.738;2023-07-28T14:58:42;23.90;99.90
59075;DHT22;44860;53.020;6.738;2023-07-28T15:01:10;23.90;99.90
59075;DHT22;44860;53.020;6.738;2023-07-28T15:03:36;23.90;99.90
59075;DHT22;44860;53.020;6.738;2023-07-28T15:06:02;23.90;99.90
59075;DHT22;44860;53.020;6.738;2023-07-28T15:08:29;24.00;99.90
59075;DHT22;44860;53.020;6.738;2023-07-28T15:10:56;24.10;99.90
59075;DHT22;44860;53.020;6.738;2023-07-28T15:13:22;24.20;99.90
59075;DHT22;44860;53.020;6.738;2023-07-28T15:15:48;24.30;99.90
59075;DHT22;44860;53.020;6.738;2023-07-28T15:18:14;24.40;99.90
59075;DHT22;44860;53.020;6.738;2023-07-28T15:20:41;24.40;99.90
59075;DHT22;44860;53.020;6.738;2023-07-28T15:23:07;24.50;99.90
59075;DHT22;44860;53.020;6.738;2023-07-28T15:25:33;24.40;99.90
59075;DHT22;44860;53.020;6.738;2023-07-28T15:27:59;24.50;99.90
59075;DHT22;44860;53.020;6.738;2023-07-28T15:30:24;24.60;99.90
59075;DHT22;44860;53.020;6.738;2023-07-28T15:32:50;24.70;99.90
59075;DHT22;44860;53.020;6.738;2023-07-28T15:35:16;24.70;99.90
59075;DHT22;44860;53.020;6.738;2023-07-28T15:37:42;24.70;99.90